Tiempo atmosférico en la estación meteorológica de Lanzarote Aeropuerto, Las Palmas (14 m.)



Fecha
DESCASC
Temp. máxima en grados centígrados (hora)
DESCASC
Temp. mínima en grados centígrados (hora)
DESCASC
Temp. media en grados centígrados
DESCASC
Racha de viento máxima en m/sg (hora)
DESCASC
Velocidad máxima media en intervalos de 10 minutos(hora)
DESCASC
Precipitaciones diarias en mm
DESCASC
Precipitaciones de 00:00 a 06:00 en mm
DESCASC
Precipitaciones de 06:00 a 12:00 en mm
DESCASC
Precipitaciones de 12:00 a 18:00 en mm
DESCASC
Precipitaciones de 18:00 a 24:00 en mm
DESCASC
02-08-2020 30.8 (15:10) 22.4 (04:50) 26.6 20 (18:10) 14.72 (18:50) 0 0 0 0 0
01-08-2020 31.3 (16:30) 21.9 (04:40) 26.6 12.5 (21:00) 9.17 (20:20) 0 0 0 0 0
31-07-2020 30.2 (16:00) 20.6 (06:40) 25.4 12.5 (13:40) 9.17 (17:50) 0 0 0 0 0
30-07-2020 29.3 (13:40) 20.9 (00:00) 25.1 13.33 (14:20) 10.28 (15:00) 0 0 0 0 0
29-07-2020 29.3 (14:40) 21.5 (00:00) 25.4 18.06 (00:10) 13.33 (00:10) 0 0 0 0 0
28-07-2020 29.4 (14:30) 21.2 (00:00) 25.3 20 (20:40) 15.28 (21:00) 0 0 0 0 0
27-07-2020 29.6 (14:40) 20.7 (00:00) 25.2 17.5 (19:40) 12.5 (23:50) 0 0 0 0 0
26-07-2020 29.4 (16:00) 21.9 (00:00) 25.6 16.39 (04:40) 11.39 (21:50) 0 0 0 0 0
25-07-2020 29.8 (14:30) 21 (00:00) 25.4 20 (18:00) 15.83 (18:00) 0 0 0 0 0
24-07-2020 29.6 (14:00) 20.9 (00:00) 25.3 17.5 (20:10) 13.33 (10:00) 0 0 0 0 0
23-07-2020 29.8 (14:30) 20.8 (00:00) 25.3 16.94 (09:20) 13.61 (09:30) 0 0 0 0 0
22-07-2020 30.2 (14:10) 21.3 (00:00) 25.8 16.94 (22:10) 12.78 (19:30) 0 0 0 0 0
21-07-2020 29.1 (14:10) 21.6 (00:00) 25.4 13.89 (08:40) 10.83 (17:00) 0 0 0 0 0
20-07-2020 28.7 (14:40) 21.9 (00:00) 25.3 19.72 (06:10) 15.28 (06:30) 0 0 0 0 0
19-07-2020 34.3 (12:10) 23.1 (00:00) 28.7 19.72 (20:00) 14.44 (17:20) 0 0 0 0 0
18-07-2020 34 (16:30) 21.6 (00:00) 27.8 15.28 (22:00) 11.67 (22:00) 0 0 0 0 0
17-07-2020 32.5 (16:20) 20.6 (00:00) 26.6 11.39 (19:10) 8.61 (19:10) 0 0 0 0 0
16-07-2020 31.6 (15:00) 20.5 (00:00) 26.1 17.5 (00:10) 11.39 (00:10) 0 0 0 0 0
15-07-2020 28.8 (13:50) 21.3 (00:00) 25 19.72 (23:00) 14.17 (01:00) 0 0 0 0 0
14-07-2020 28.6 (14:00) 20.6 (00:00) 24.6 20 (19:10) 15 (19:30) 0 0 0 0 0
13-07-2020 28.5 (13:30) 20.3 (00:00) 24.4 15.28 (14:30) 11.67 (18:50) 0 0 0 0 0
12-07-2020 29.8 (14:20) 20.5 (03:50) 25.1 16.39 (03:20) 11.67 (05:20) 0 0 0 0 0
11-07-2020 29.6 (14:30) 20.7 (02:10) 25.2 16.94 (01:00) 12.78 (09:20) 0 0 0 0 0
10-07-2020 28.5 (14:30) 20.9 (00:00) 24.7 17.5 (13:30) 13.33 (18:10) 0 0 0 0 0
09-07-2020 28.5 (14:00) 20.2 (07:00) 24.4 18.61 (10:00) 15.83 (10:00) 0 0 0 0 0
08-07-2020 31.7 (17:00) 21.4 (23:59) 26.6 18.06 (21:00) 13.61 (20:40) 0 0 0 0 0

Gráficas

Temp. máximas Temp. mínimas Temp. medias Precipitaciones Rachas de viento máximas Velocidades máximas media en intervalos de 10 minutos

Datos horarios

Fecha y hora oficial Temperatura (ºC) Velocidad del viento (km/h) Dirección del viento Racha (km/h) Dirección de racha Precipitación (mm) Presión (hPa) Tendencia (hPa) Humedad (%)
2020-08-06 23:00:00 22.9 21 Norte 35 Norte 0 1015.3 1.4 73
2020-08-06 22:00:00 23.2 22 Norte 45 Norte 0 1015.2 1.9 72
2020-08-06 21:00:00 23.3 25 Norte 39 Norte 0 1014.4 1.6 71
2020-08-06 20:00:00 23.8 24 Norte 37 Noroeste 0 1013.9 -- 72
2020-08-06 19:00:00 25.1 24 Norte 42 Norte 0 1013.3 -- 67
2020-08-06 18:00:00 26.6 30 Norte 42 Norte 0 1012.8 -- 62
2020-08-06 17:00:00 28 24 Norte 35 Noroeste 0 1012.7 -- 56
2020-08-06 16:00:00 27.6 23 Noroeste 35 Noroeste 0 1012.7 -- 57
2020-08-06 15:00:00 26.9 20 Noroeste 35 Norte 0 1013.2 -- 59
2020-08-06 14:00:00 26.6 19 Norte 32 Noroeste 0 1013.3 -- 60
2020-08-06 13:00:00 26.1 20 Norte 37 Norte 0 1013.2 -- 60
2020-08-06 12:00:00 26.7 23 Norte 39 Norte 0 1013 -- 57
2020-08-06 11:00:00 24.9 22 Norte 39 Norte 0 1012.8 -- 62
2020-08-06 10:00:00 24.6 26 Norte 37 Norte 0 1012.7 -- 61
2020-08-06 09:00:00 22.9 24 Norte 33 Norte 0 1012.2 -- 67
2020-08-06 08:00:00 22.1 17 Norte 33 Norte 0 1011.8 -- 72
2020-08-06 07:00:00 22 18 Norte 35 Norte 0 1011.2 -- 71
2020-08-06 06:00:00 22.2 16 Norte 30 Norte 0 1011.1 -- 71
2020-08-06 05:00:00 22.3 22 Norte 33 Norte 0 1010.8 -- 72
2020-08-06 04:00:00 22.3 19 Norte 30 Norte 0 1011.1 -- 70
2020-08-06 03:00:00 22.4 20 Norte 32 Norte 0 1011.3 -- 71
2020-08-06 02:00:00 22.6 19 Norte 33 Norte 0 1011.7 -- 74
2020-08-06 01:00:00 22.6 21 Norte 35 Norte 0 1012 -- 74
2020-08-06 00:00:00 23.1 24 Norte 37 Norte 0 1012.2 -- 73
2020-08-05 23:00:00 23.2 20 Norte 39 Norte 0 1012 -- 73
2020-08-05 22:00:00 23.2 24 Norte 33 Norte 0 1011.5 -- 71
2020-08-05 21:00:00 23.2 24 Norte 45 Norte 0 1011 -- 73
2020-08-05 20:00:00 24.3 28 Norte 48 Norte 0 1010.2 -- 66
2020-08-05 19:00:00 25.4 28 Norte 42 Norte 0 1010.2 -- 62
2020-08-05 18:00:00 26 28 Norte 45 Norte 0 1010.5 -- 59
2020-08-05 17:00:00 27.2 27 Norte 41 Norte 0 1010.5 -- 55
2020-08-05 16:00:00 27.5 26 Norte 45 Norte 0 1010.7 -- 55
2020-08-05 15:00:00 27.9 27 Norte 42 Norte 0 1011.1 -- 53
2020-08-05 14:00:00 26.8 21 Norte 41 Norte 0 1011.4 -- 59
2020-08-05 13:00:00 27.3 26 Norte 41 Norte 0 1011.5 -- 57
2020-08-05 12:00:00 26.5 23 Norte 35 Norte 0 1011.7 -- 58
2020-08-05 11:00:00 25.1 27 Norte 39 Norte 0 1011.3 -- 64
2020-08-05 10:00:00 24.1 29 Norte 41 Norte 0 1011 -- 65
2020-08-05 09:00:00 22.8 25 Norte 37 Norte 0 1010.6 -- 72
2020-08-05 08:00:00 21.7 29 Norte 42 Norte 0 1010.2 -- 75
2020-08-05 07:00:00 21.3 25 Norte 41 Norte 0 1009.9 -- 76
2020-08-05 06:00:00 21.5 16 Norte 42 Norte 0 1009.8 -- 78
2020-08-05 05:00:00 21.4 24 Norte 41 Norte 0 1009.9 -- 76
2020-08-05 04:00:00 21.9 23 Norte 35 Norte 0 1010 -- 78
2020-08-05 03:00:00 21.7 19 Norte 35 Norte 0 1010.3 -- 79
2020-08-05 02:00:00 21.8 20 Norte 45 Norte 0 1010.8 -- 80
2020-08-05 01:00:00 21.9 31 Norte 45 Norte 0 1010.7 -- 81
2020-08-05 00:00:00 22 31 Norte 42 Norte 0 1010.7 -- 80
2020-08-04 23:00:00 22.2 31 Norte 50 Norte 0 1010.8 -- 81
2020-08-04 22:00:00 22.5 35 Norte 48 Norte 0 1010.3 -- 78
2020-08-04 21:00:00 23.1 36 Norte 52 Norte 0 1010.5 -- 76
2020-08-04 20:00:00 24.4 34 Norte 55 Norte 0 1010 -- 71
2020-08-04 19:00:00 25.8 41 Norte 63 Norte 0 1009.2 -- 66
2020-08-04 18:00:00 26.9 39 Norte 61 Norte 0 1009.4 -- 62
2020-08-04 17:00:00 27.7 50 Norte 65 Norte 0 1009.4 -- 59
2020-08-04 16:00:00 28.1 47 Norte 63 Norte 0 1009.9 -- 58
2020-08-04 15:00:00 28.4 41 Norte 61 Norte 0 1010.3 -- 56
2020-08-04 14:00:00 28.3 44 Norte 58 Norte 0 1010.7 -- 57
2020-08-04 13:00:00 28.3 44 Norte 67 Norte 0 1011.1 -- 57
2020-08-04 12:00:00 28.1 42 Norte 59 Norte 0 1011.2 -- 57
2020-08-04 11:00:00 26.8 42 Norte 54 Norte 0 1011.6 -- 63
2020-08-04 10:00:00 25.1 36 Norte 50 Norte 0 1011.7 -- 70
2020-08-04 09:00:00 23.3 36 Norte 50 Norte 0 1011.6 -- 77
2020-08-04 08:00:00 22.2 23 Nordeste 50 Norte 0 1011.4 -- 84
2020-08-04 07:00:00 21.8 36 Norte 61 Norte 0 1010.3 -- 85
2020-08-04 06:00:00 21.8 46 Norte 67 Norte 0 1009.4 -- 83
2020-08-04 05:00:00 21.7 47 Norte 72 Norte 0 1009.3 -- 87
2020-08-04 04:00:00 21.8 46 Norte 74 Norte 0 1009.5 -- 86
2020-08-04 03:00:00 21.7 49 Norte 68 Norte 0 1010.1 -- 85
2020-08-04 02:00:00 21.8 47 Norte 65 Norte 0 1010.9 -- 84
2020-08-04 01:00:00 21.9 47 Norte 72 Noroeste 0 1011.5 -- 85
2020-08-04 00:00:00 22 52 Norte 72 Norte 0 1011.7 -- 85
2020-08-03 23:00:00 22.2 41 Norte 67 Norte 0 1012.2 -- 84
2020-08-03 22:00:00 22.4 49 Norte 78 Norte 0 1011.8 -- 83
2020-08-03 21:00:00 22.9 52 Norte 68 Norte 0 1011.5 -- 81
2020-08-03 20:00:00 24.2 48 Norte 67 Norte 0 1011.6 -- 75
2020-08-03 19:00:00 25.9 48 Norte 63 Norte 0 1011.9 -- 67
2020-08-03 18:00:00 27.3 48 Norte 63 Norte 0 1012.1 -- 60
2020-08-03 17:00:00 28.6 43 Norte 58 Norte 0 1012.2 -- 56
2020-08-03 16:00:00 28.6 45 Norte 65 Norte 0 1012.7 -- 58
2020-08-03 15:00:00 28.9 48 Norte 65 Norte 0 1012.9 -- 56
2020-08-03 14:00:00 28.9 47 Norte 68 Norte 0 1013.7 -- 57
2020-08-03 13:00:00 27.8 47 Norte 74 Norte 0 1013.9 -- 59
2020-08-03 12:00:00 27.2 48 Norte 74 Norte 0 1013.6 -- 61
2020-08-03 11:00:00 26 52 Norte 74 Norte 0 1013.2 -- 65
2020-08-03 10:00:00 24.7 41 Norte 68 Norte 0 1013.5 -- 70
2020-08-03 09:00:00 23.2 37 Norte 68 Norte 0 1013.3 -- 80
2020-08-03 08:00:00 22.1 52 Norte 71 Noroeste 0 1012.2 -- 85
2020-08-03 07:00:00 21.8 45 Norte 65 Norte 0 1012 -- 87
2020-08-03 06:00:00 21.8 36 Norte 58 Norte 0 1012.8 -- 89
2020-08-03 05:00:00 22.1 43 Norte 67 Norte 0 1012.6 -- 86
2020-08-03 04:00:00 22.2 45 Norte 61 Norte 0 1012.8 -- 86
2020-08-03 03:00:00 22.4 36 Norte 65 Norte 0 1013.4 -- 86
2020-08-03 02:00:00 22.8 42 Norte 65 Norte 0 1013.5 -- 81
2020-08-03 01:00:00 23 42 Norte 61 Norte 0 1014 -- 78
2020-08-03 00:00:00 22.9 34 Norte 52 Norte 0 1014.9 -- 81
2020-08-02 23:00:00 23.3 39 Norte 58 Norte 0 1014.2 -- 80
2020-08-02 22:00:00 23.6 35 Norte 54 Norte 0 1013.7 -- 77
2020-08-02 21:00:00 24.2 37 Norte 65 Norte 0 1013 -- 73
2020-08-02 20:00:00 25.2 44 Norte 68 Norte 0 1012.8 -- 71
2020-08-02 19:00:00 26.6 51 Norte 72 Norte 0 1012.6 -- 67
2020-08-02 18:00:00 28.3 52 Norte 67 Norte 0 1012.9 -- 63
2020-08-02 17:00:00 29 43 Norte 67 Norte 0 1013.2 -- 62
2020-08-02 16:00:00 29.5 44 Norte 63 Norte 0 1013.9 -- 61
2020-08-02 15:00:00 30.2 44 Norte 61 Norte 0 1014.2 -- 57
2020-08-02 14:00:00 29.6 42 Norte 58 Norte 0 1014.7 -- 59
2020-08-02 13:00:00 29.6 38 Norte 58 Norte 0 1015 -- 60
2020-08-02 12:00:00 28.6 40 Norte 54 Norte 0 1015.3 -- 63
2020-08-02 11:00:00 27.1 38 Norte 52 Norte 0 1015.2 -- 68
2020-08-02 10:00:00 25.6 37 Norte 50 Norte 0 1015.2 -- 75
2020-08-02 09:00:00 24.3 33 Norte 46 Norte 0 1014.7 -- 80
2020-08-02 08:00:00 23.1 30 Norte 42 Norte 0 1014.6 -- 86
2020-08-02 07:00:00 22.8 29 Norte 45 Norte 0 1014 -- 86
2020-08-02 06:00:00 22.7 27 Norte 37 Norte 0 1013.8 -- 86
2020-08-02 05:00:00 22.5 24 Norte 45 Norte 0 1014 -- 87
2020-08-02 04:00:00 22.5 27 Norte 37 Norte 0 1013.9 -- 88
2020-08-02 03:00:00 22.6 21 Norte 32 Norte 0 1014.5 -- 87
2020-08-02 02:00:00 22.8 19 Norte 37 Norte 0 1014.9 -- 85
2020-08-02 01:00:00 23 19 Norte 35 Norte 0 1015.7 -- 84
2020-08-02 00:00:00 23.2 23 Norte 37 Norte 0 1015.7 -- 83
2020-08-01 23:00:00 23.5 24 Norte 39 Norte 0 1015.7 -- 82
2020-08-01 22:00:00 23.8 25 Norte 39 Norte 0 1015 -- 83
2020-08-01 21:00:00 24 28 Norte 45 Noroeste 0 1014.6 -- 79
2020-08-01 20:00:00 25.1 28 Norte 42 Norte 0 1014.3 -- 76
2020-08-01 19:00:00 27.5 28 Norte 39 Norte 0 1013.7 -- 65
2020-08-01 18:00:00 29 26 Norte 37 Noroeste 0 1014 -- 56
2020-08-01 17:00:00 30.8 28 Norte 39 Norte 0 1014.2 -- 48
2020-08-01 16:00:00 30.5 19 Norte 39 Norte 0 1015 -- 51
2020-08-01 15:00:00 30.3 27 Norte 37 Norte 0 1015.5 -- 53
2020-08-01 14:00:00 29.5 28 Norte 41 Norte 0 1015.5 -- 55
2020-08-01 13:00:00 29.4 28 Norte 37 Norte 0 1015.8 -- 55
2020-08-01 12:00:00 27.9 25 Norte 37 Norte 0 1015.8 -- 60
2020-08-01 11:00:00 26.4 27 Norte 37 Norte 0 1015.7 -- 64
2020-08-01 10:00:00 24.8 27 Norte 35 Norte 0 1015.6 -- 71
2020-08-01 09:00:00 23.1 26 Norte 32 Norte 0 1015.5 -- 81
2020-08-01 08:00:00 22.2 16 Norte 26 Norte 0 1015.4 -- 86
2020-08-01 07:00:00 22 14 Norte 24 Norte 0 1015 -- 84
2020-08-01 06:00:00 22 13 Nordeste 24 Norte 0 1014.8 -- 84
2020-08-01 05:00:00 22 15 Norte 28 Norte 0 1014.4 -- 86
2020-08-01 04:00:00 22.1 19 Norte 30 Norte 0 1014.6 -- 86
2020-08-01 03:00:00 22.1 18 Norte 26 Norte 0 1014.5 -- 85
2020-08-01 02:00:00 22.3 14 Norte 21 Norte 0 1015.1 -- 82
2020-08-01 01:00:00 22.7 16 Norte 22 Norte 0 1016 -- 81
2020-08-01 00:00:00 23.3 16 Nordeste 26 Nordeste 0 1016.3 -- 78
2020-07-31 23:00:00 23.5 17 Nordeste 24 Nordeste 0 1016.1 -- 75
2020-07-31 22:00:00 23.4 15 Norte 32 Norte 0 1015.7 -- 77
2020-07-31 21:00:00 23.4 23 Norte 39 Norte 0 1014.8 -- 75
2020-07-31 20:00:00 24.6 26 Norte 39 Norte 0 1014 -- 71
2020-07-31 19:00:00 26 30 Norte 42 Norte 0 1013.4 -- 65
2020-07-31 18:00:00 27.6 32 Norte 45 Norte 0 1013.3 -- 59
2020-07-31 17:00:00 29.1 26 Norte 35 Norte 0 1013.1 -- 54
2020-07-31 16:00:00 30 15 Norte 32 Noroeste 0 1013.4 -- 51
2020-07-31 15:00:00 29.2 23 Norte 41 Norte 0 1013.4 -- 53
2020-07-31 14:00:00 28.8 18 Norte 45 Este 0 1013.5 -- 55
2020-07-31 13:00:00 28.4 12 Nordeste 41 Este 0 1014 -- 56
2020-07-31 12:00:00 26.7 15 Este 30 Este 0 1014 -- 62
2020-07-31 11:00:00 25.4 14 Norte 26 Noroeste 0 1014.4 -- 65
2020-07-31 10:00:00 23.4 14 Norte 21 Nordeste 0 1014 -- 72
2020-07-31 09:00:00 22.5 13 Norte 18 Nordeste 0 1014.3 -- 77
2020-07-31 08:00:00 21.5 8 Norte 17 Norte 0 1013.2 -- 82
2020-07-31 07:00:00 20.7 11 Norte 21 Norte 0 1013.2 -- 82
2020-07-31 06:00:00 20.9 14 Norte 24 Norte 0 1012.9 -- 82
2020-07-31 05:00:00 21.1 15 Norte 32 Norte 0 1011.9 -- 82
2020-07-31 04:00:00 21.5 19 Nordeste 37 Norte 0 1011.9 -- 80
2020-07-31 03:00:00 21.6 16 Nordeste 30 Norte 0 1011.8 -- 79
2020-07-31 02:00:00 22 18 Norte 28 Norte 0 1012.4 -- 77
2020-07-31 01:00:00 22.3 19 Norte 33 Nordeste 0 1013.1 -- 75
2020-07-31 00:00:00 22.7 20 Nordeste 32 Nordeste 0 1013.7 -- 74
2020-07-30 23:00:00 22.9 16 Nordeste 33 Norte 0 1013.8 -- 73
2020-07-30 22:00:00 22.6 23 Norte 45 Norte 0 1012.8 -- 75
2020-07-30 21:00:00 22.8 27 Norte 39 Norte 0 1011.9 -- 74
2020-07-30 20:00:00 23.9 30 Norte 41 Norte 0 1011.1 -- 69
2020-07-30 19:00:00 25.3 31 Norte 45 Norte 0 1010.7 -- 64
2020-07-30 18:00:00 26.7 33 Norte 45 Norte 0 1010.6 -- 58
2020-07-30 17:00:00 27.4 33 Norte 46 Norte 0 1010.7 -- 58
2020-07-30 16:00:00 28.2 34 Norte 48 Norte 0 1010.4 -- 52
2020-07-30 15:00:00 28.8 37 Norte 48 Norte 0 1010.6 -- 51
2020-07-30 14:00:00 28.6 33 Norte 46 Norte 0 1011.1 -- 52
2020-07-30 13:00:00 28 26 Norte 39 Norte 0 1011.7 -- 54
2020-07-30 12:00:00 26.8 24 Norte 42 Norte 0 1012.1 -- 56
2020-07-30 11:00:00 25.6 28 Norte 41 Norte 0 1011 -- 61
2020-07-30 10:00:00 23.8 21 Norte 30 Norte 0 1011.7 -- 66
2020-07-30 09:00:00 22.2 17 Norte 32 Norte 0 1011.6 -- 73
2020-07-30 08:00:00 21.2 17 Nordeste 28 Nordeste 0 1010.5 -- 77
2020-07-30 07:00:00 21.4 18 Nordeste 28 Norte 0 1009.9 -- 75
2020-07-30 06:00:00 21.3 18 Nordeste 35 Norte 0 1009.8 -- 76
2020-07-30 05:00:00 21.3 22 Norte 39 Nordeste 0 1009.8 -- 76
2020-07-30 04:00:00 21.7 22 Norte 37 Norte 0 1009.7 -- 74
2020-07-30 03:00:00 22 23 Norte 33 Norte 0 1010 -- 74
2020-07-30 02:00:00 21.9 27 Norte 41 Norte 0 1011 -- 72
2020-07-30 01:00:00 22.2 22 Norte 45 Norte 0 1011.3 -- 74
2020-07-30 00:00:00 22.2 29 Norte 45 Norte 0 1011.5 -- 73
2020-07-29 23:00:00 22.4 22 Norte 46 Nordeste 0 1011.2 -- 73
2020-07-29 22:00:00 22.7 28 Norte 48 Norte 0 1010.8 -- 72
2020-07-29 21:00:00 23 28 Norte 48 Norte 0 1010.4 -- 73
2020-07-29 20:00:00 24.4 36 Norte 48 Norte 0 1010.1 -- 66
2020-07-29 19:00:00 25.6 35 Norte 54 Norte 0 1010.1 -- 63
2020-07-29 18:00:00 26.6 38 Norte 55 Norte 0 1010.1 -- 60
2020-07-29 17:00:00 27.5 41 Norte 55 Norte 0 1010.5 -- 56
2020-07-29 16:00:00 28.4 42 Norte 58 Norte 0 1010.7 -- 53
2020-07-29 15:00:00 28.5 41 Norte 55 Norte 0 1011.1 -- 54
2020-07-29 14:00:00 28.7 40 Norte 55 Norte 0 1011.8 -- 51
2020-07-29 13:00:00 28.5 43 Norte 55 Norte 0 1012 -- 53
2020-07-29 12:00:00 27.5 37 Norte 58 Norte 0 1012.3 -- 56
2020-07-29 11:00:00 26.3 40 Norte 55 Norte 0 1012.5 -- 59
2020-07-29 10:00:00 24.3 32 Norte 42 Norte 0 1012.6 -- 72
2020-07-29 09:00:00 23.3 28 Nordeste 45 Norte 0 1012.2 -- 70
2020-07-29 08:00:00 22.1 21 Nordeste 41 Norte 0 1012 -- 74
2020-07-29 07:00:00 21.7 23 Nordeste 45 Norte 0 1011.6 -- 77
2020-07-29 06:00:00 21.7 33 Norte 48 Norte 0 1011.3 -- 78
2020-07-29 05:00:00 21.5 27 Norte 45 Norte 0 1011.1 -- 78
2020-07-29 04:00:00 21.6 26 Norte 45 Norte 0 1011.5 -- 78
2020-07-29 03:00:00 21.6 30 Norte 46 Norte 0 1011.8 -- 79
2020-07-29 02:00:00 21.6 36 Norte 50 Norte 0 1012.2 -- 79
2020-07-29 01:00:00 21.9 38 Norte 65 Norte 0 1012.7 -- 79
2020-07-29 00:00:00 21.9 41 Norte 67 Norte 0 1012.7 -- 78
2020-07-28 23:00:00 22.4 43 Norte 59 Norte 0 1013.1 -- 78
2020-07-28 22:00:00 22.4 40 Norte 68 Norte 0 1013 -- 77
2020-07-28 21:00:00 22.9 55 Norte 72 Norte 0 1012.2 -- 76
2020-07-28 20:00:00 24.1 51 Norte 68 Norte 0 1011.8 -- 73
2020-07-28 19:00:00 25.7 45 Norte 63 Norte 0 1012.1 -- 67
2020-07-28 18:00:00 26.9 39 Norte 58 Norte 0 1013 -- 62
2020-07-28 17:00:00 27.9 45 Norte 59 Norte 0 1012.8 -- 58
2020-07-28 16:00:00 28.7 39 Norte 54 Norte 0 1013.2 -- 55
2020-07-28 15:00:00 29 41 Norte 54 Norte 0 1013.4 -- 55
2020-07-28 14:00:00 28.8 42 Norte 54 Norte 0 1013.8 -- 55
2020-07-28 13:00:00 28.6 38 Norte 52 Norte 0 1014.1 -- 55
2020-07-28 12:00:00 27.5 41 Norte 54 Norte 0 1014 -- 60
2020-07-28 11:00:00 26.6 34 Norte 46 Norte 0 1013.7 -- 62
2020-07-28 10:00:00 24.7 35 Norte 50 Norte 0 1014 -- 69
2020-07-28 09:00:00 23 32 Norte 48 Norte 0 1013.5 -- 77
2020-07-28 08:00:00 21.5 30 Nordeste 46 Norte 0 1013.3 -- 84
2020-07-28 07:00:00 21.4 37 Norte 50 Norte 0 1012.9 -- 85
2020-07-28 06:00:00 21.3 32 Norte 65 Norte 0 1012.4 -- 85
2020-07-28 05:00:00 21.4 42 Norte 67 Norte 0 1011.8 -- 84
2020-07-28 04:00:00 21.4 43 Norte 55 Norte 0 1012.1 -- 85
2020-07-28 03:00:00 21.6 39 Norte 58 Norte 0 1013.1 -- 85
2020-07-28 02:00:00 21.8 40 Norte 54 Norte 0 1013.1 -- 83
2020-07-28 01:00:00 21.9 40 Norte 55 Norte 0 1013.7 -- 84
2020-07-28 00:00:00 22.2 43 Norte 58 Norte 0 1014.5 -- 82
2020-07-27 23:00:00 22.4 38 Norte 54 Norte 0 1013.8 -- 81
2020-07-27 22:00:00 22.6 40 Norte 54 Norte 0 1013.8 -- 80
2020-07-27 21:00:00 23 37 Norte 55 Norte 0 1013.6 -- 78
2020-07-27 20:00:00 24.1 35 Norte 63 Norte 0 1012.7 -- 74
2020-07-27 19:00:00 25.6 42 Norte 58 Norte 0 1012.3 -- 68
2020-07-27 18:00:00 26.8 39 Norte 55 Norte 0 1012.1 -- 63
2020-07-27 17:00:00 27.6 41 Norte 59 Norte 0 1012.2 -- 60
2020-07-27 16:00:00 28.2 42 Norte 58 Norte 0 1012 -- 57
2020-07-27 15:00:00 29.1 36 Norte 50 Norte 0 1012.8 -- 54
2020-07-27 14:00:00 28.6 38 Norte 52 Norte 0 1013 -- 56
2020-07-27 13:00:00 28.9 36 Norte 54 Norte 0 1013 -- 55
2020-07-27 12:00:00 28 33 Norte 52 Norte 0 1012.8 -- 58
2020-07-27 11:00:00 26.3 27 Norte 37 Norte 0 1013.6 -- 63
2020-07-27 08:00:00 21.1 24 Nordeste 42 Norte 0 1012.3 0.8 83
2020-07-27 07:00:00 20.8 39 Norte 54 Norte 0 1011.6 -0.2 83
2020-07-27 06:00:00 20.8 33 Norte 50 Norte 0 1011 -0.8 82
2020-07-27 05:00:00 21.1 37 Norte 50 Norte 0 1011.5 -1.4 82
2020-07-27 04:00:00 21.1 30 Norte 54 Norte 0 1011.8 -1.2 81
2020-07-27 03:00:00 21.7 30 Nordeste 45 Norte 0 1011.8 -1.5 79
2020-07-27 02:00:00 22.4 23 Nordeste 46 Norte 0 1012.9 0 78
2020-07-27 01:00:00 22.2 28 Norte 48 Norte 0 1013 1.2 79
2020-07-27 00:00:00 22.4 32 Norte 46 Norte 0 1013.3 1.9 78
2020-07-26 23:00:00 22.2 30 Norte 55 Norte 0 1012.9 1.6 78
2020-07-26 22:00:00 22.5 33 Norte 55 Norte 0 1011.8 0.8 77
2020-07-26 21:00:00 22.9 32 Norte 50 Norte 0 1011.4 0.2 75
2020-07-26 20:00:00 24.5 31 Norte 50 Norte 0 1011.3 -0.3 69
2020-07-26 19:00:00 26.1 36 Norte 55 Norte 0 1011 -0.5 63
2020-07-26 18:00:00 27.5 36 Norte 52 Norte 0 1011.2 -0.9 57
2020-07-26 17:00:00 28.4 34 Norte 50 Norte 0 1011.6 -0.8 53
2020-07-26 16:00:00 29.1 35 Norte 48 Norte 0 1011.5 -1 53
2020-07-26 15:00:00 29 32 Norte 48 Norte 0 1012.1 -0.8 51
2020-07-26 14:00:00 28.5 33 Norte 52 Norte 0 1012.4 -0.5 53
2020-07-26 13:00:00 27.8 35 Norte 50 Norte 0 1012.5 -0.3 55
2020-07-26 12:00:00 26.4 34 Nordeste 50 Norte 0 1012.9 0.2 60
2020-07-26 11:00:00 24.5 35 Norte 52 Norte 0 1012.9 0.9 67
2020-07-26 10:00:00 23.1 33 Norte 48 Norte 0 1012.8 0.8 73
2020-07-26 09:00:00 22.5 28 Norte 45 Norte 0 1012.7 -- 75
2020-07-26 08:00:00 22.2 30 Norte 46 Norte 0 1012 -- 78
2020-07-26 07:00:00 22 25 Norte 50 Norte 0 1012 -- 77
2020-07-26 06:00:00 22.1 26 Norte 46 Norte 0 1011.5 -- 76
2020-07-26 05:00:00 22.2 30 Norte 59 Norte 0 1011.6 -- 77
2020-07-26 04:00:00 22.1 34 Norte 48 Norte 0 1011.6 -- 78
2020-07-26 03:00:00 22.3 39 Norte 48 Norte 0 1012.5 -- 77
2020-07-26 02:00:00 22.3 32 Norte 46 Norte 0 1012.8 -- 78
2020-07-26 01:00:00 22.3 29 Norte 48 Norte 0 1013.4 -- 78
2020-07-26 00:00:00 22.4 30 Norte 48 Norte 0 1013.7 -- 78
2020-07-25 23:00:00 22.4 31 Norte 48 Norte 0 1013.6 -- 80
2020-07-25 22:00:00 22.4 34 Norte 59 Norte 0 1012.9 -- 79
2020-07-25 21:00:00 22.8 45 Norte 59 Norte 0 1011.9 -- 77
2020-07-25 20:00:00 24.2 32 Norte 71 Norte 0 1011.7 -- 72
2020-07-25 19:00:00 25.4 53 Norte 72 Norte 0 1010.6 -- 67
2020-07-25 18:00:00 26.8 57 Norte 72 Norte 0 1010.5 -- 62
2020-07-25 17:00:00 27.6 48 Norte 61 Norte 0 1011.4 -- 58
2020-07-25 16:00:00 28.2 42 Norte 59 Norte 0 1011.8 -- 56
2020-07-25 15:00:00 29.1 41 Norte 58 Norte 0 1011.9 -- 53
2020-07-25 14:00:00 28.6 41 Norte 54 Norte 0 1012.6 -- 54
2020-07-25 13:00:00 28.1 41 Norte 54 Norte 0 1012.9 -- 56
2020-07-25 12:00:00 27.2 41 Norte 54 Norte 0 1012.9 -- 59
2020-07-25 11:00:00 26.2 43 Norte 58 Norte 0 1012.5 -- 62
2020-07-25 10:00:00 24.4 41 Norte 61 Norte 0 1012.3 -- 70
2020-07-25 09:00:00 22.8 45 Norte 61 Norte 0 1011.8 -- 76
2020-07-25 08:00:00 21.3 39 Norte 54 Norte 0 1011.2 -- 85
2020-07-25 07:00:00 21 37 Norte 52 Norte 0 1011 -- 87
2020-07-25 06:00:00 21.2 38 Norte 55 Norte 0 1010.9 -- 88
2020-07-25 05:00:00 21.2 41 Norte 55 Norte 0 1010.8 -- 87
2020-07-25 04:00:00 21.4 39 Norte 54 Norte 0 1010.9 -- 87
2020-07-25 03:00:00 21.5 39 Norte 63 Norte 0 1011 -- 85
2020-07-25 02:00:00 21.7 41 Norte 61 Norte 0 1011.3 -- 86
2020-07-25 01:00:00 21.8 48 Norte 61 Norte 0 1011.7 -- 85
2020-07-25 00:00:00 21.8 42 Norte 61 Norte 0 1012.2 -- 84
2020-07-24 23:00:00 21.9 45 Norte 61 Norte 0 1012.2 -- 83
2020-07-24 22:00:00 22.2 41 Norte 59 Norte 0 1011.8 -- 82
2020-07-24 21:00:00 22.6 41 Norte 63 Norte 0 1011.6 -- 79
2020-07-24 20:00:00 23.6 42 Norte 58 Norte 0 1011.6 -- 75
2020-07-24 19:00:00 25.1 41 Norte 61 Norte 0 1011.6 -- 70
2020-07-24 18:00:00 26.4 42 Norte 54 Noroeste 0 1011.9 -- 65
2020-07-24 17:00:00 27.9 38 Norte 50 Norte 0 1011.9 -- 60
2020-07-24 16:00:00 28.7 37 Norte 54 Noroeste 0 1012.2 -- 58
2020-07-24 15:00:00 29.3 38 Norte 55 Norte 0 1012.3 -- 55
2020-07-24 14:00:00 29.2 41 Norte 58 Norte 0 1012.6 -- 56
2020-07-24 13:00:00 28.3 38 Norte 55 Norte 0 1012.8 -- 58
2020-07-24 12:00:00 27.5 36 Norte 52 Norte 0 1012.9 -- 62
2020-07-24 11:00:00 25.9 39 Norte 61 Norte 0 1012.8 -- 68
2020-07-24 10:00:00 24.4 48 Norte 61 Norte 0 1012.3 -- 74
2020-07-24 09:00:00 23 45 Norte 59 Norte 0 1012 -- 80
2020-07-24 08:00:00 21.5 36 Norte 54 Norte 0 1011.8 -- 86
2020-07-24 07:00:00 21.1 28 Norte 50 Norte 0 1011.7 -- 86
2020-07-24 06:00:00 21.2 32 Norte 46 Norte 0 1011.6 -- 86
2020-07-24 05:00:00 21 35 Norte 48 Norte 0 1011.6 -- 85
2020-07-24 04:00:00 21 33 Norte 50 Norte 0 1011.7 -- 86
2020-07-24 03:00:00 21.1 36 Norte 54 Norte 0 1012 -- 85
2020-07-24 02:00:00 21.3 32 Norte 48 Norte 0 1012.8 -- 86
2020-07-24 01:00:00 21.5 29 Norte 48 Norte 0 1013.6 -- 84
2020-07-24 00:00:00 21.6 30 Norte 52 Norte 0 1013.9 -- 83
2020-07-23 23:00:00 21.9 30 Norte 50 Norte 0 1013.8 -- 83
2020-07-23 22:00:00 22.1 30 Norte 48 Norte 0 1013.6 -- 81
2020-07-23 21:00:00 22.7 27 Norte 50 Norte 0 1013.4 -- 78
2020-07-23 20:00:00 24 36 Norte 55 Norte 0 1013.2 -- 73
2020-07-23 19:00:00 25.6 40 Norte 55 Norte 0 1012.6 -- 68
2020-07-23 18:00:00 27 37 Norte 55 Norte 0 1012.8 -- 63
2020-07-23 17:00:00 28.1 39 Norte 59 Norte 0 1013.3 -- 59
2020-07-23 16:00:00 29.2 40 Norte 50 Norte 0 1013.7 -- 55
2020-07-23 15:00:00 29.2 35 Norte 55 Norte 0 1014.1 -- 55
2020-07-23 14:00:00 28.6 39 Norte 54 Norte 0 1014.4 -- 57
2020-07-23 13:00:00 28.5 36 Norte 54 Norte 0 1014.7 -- 57
2020-07-23 12:00:00 27.4 39 Norte 58 Norte 0 1014.8 -- 60
2020-07-23 11:00:00 26 46 Norte 61 Norte 0 1014.5 -- 65
2020-07-23 10:00:00 24.3 45 Norte 61 Norte 0 1014 -- 71
2020-07-23 09:00:00 22.8 41 Norte 58 Norte 0 1013.8 -- 77
2020-07-23 08:00:00 21.3 30 Norte 52 Norte 0 1013.7 -- 85
2020-07-23 07:00:00 20.9 34 Norte 50 Norte 0 1013.2 -- 87
2020-07-23 06:00:00 20.9 31 Norte 59 Norte 0 1013.1 -- 86
2020-07-23 05:00:00 21 34 Norte 54 Norte 0 1013 -- 86
2020-07-23 04:00:00 21.2 39 Norte 54 Norte 0 1013 -- 85
2020-07-23 03:00:00 21.3 39 Norte 54 Norte 0 1013.8 -- 85
2020-07-23 02:00:00 21.5 35 Norte 52 Norte 0 1014.5 -- 85
2020-07-23 01:00:00 21.6 34 Norte 52 Norte 0 1014.8 -- 84
2020-07-23 00:00:00 21.7 39 Norte 59 Norte 0 1014.5 -- 83
2020-07-22 23:00:00 22 34 Norte 61 Norte 0 1014.6 -- 82
2020-07-22 22:00:00 22.4 37 Norte 59 Norte 0 1013.9 -- 81
2020-07-22 21:00:00 22.9 33 Norte 52 Norte 0 1014.2 -- 77
2020-07-22 20:00:00 24.2 42 Norte 55 Norte 0 1013.8 -- 71
2020-07-22 19:00:00 25.7 42 Norte 58 Norte 0 1013.4 -- 65
2020-07-22 18:00:00 27.1 40 Norte 55 Norte 0 1013.6 -- 61
2020-07-22 17:00:00 28.2 36 Norte 52 Norte 0 1013.9 -- 57
2020-07-22 16:00:00 28.6 35 Norte 54 Norte 0 1014 -- 55
2020-07-22 15:00:00 29.5 38 Norte 50 Norte 0 1013.9 -- 52
2020-07-22 14:00:00 29.6 31 Norte 46 Norte 0 1014.5 -- 52
2020-07-22 13:00:00 29.3 32 Norte 45 Norte 0 1014.8 -- 52
2020-07-22 12:00:00 28 27 Norte 39 Norte 0 1015.1 -- 55
2020-07-22 11:00:00 26.3 22 Nordeste 39 Nordeste 0 1014.9 -- 61
2020-07-22 10:00:00 24.5 24 Nordeste 37 Nordeste 0 1014.8 -- 66
2020-07-22 09:00:00 23.2 17 Nordeste 28 Norte 0 1014.8 -- 72
2020-07-22 08:00:00 21.6 19 Nordeste 32 Nordeste 0 1014.1 -- 78
2020-07-22 07:00:00 21.6 14 Nordeste 33 Nordeste 0 1013.7 -- 80
2020-07-22 06:00:00 21.3 21 Nordeste 33 Nordeste 0 1013.5 -- 78
2020-07-22 05:00:00 21.6 24 Nordeste 39 Norte 0 1013.5 -- 77
2020-07-22 04:00:00 21.9 17 Nordeste 35 Norte 0 1013.6 -- 77
2020-07-22 03:00:00 21.9 23 Nordeste 39 Norte 0 1014.1 -- 76
2020-07-22 02:00:00 21.9 27 Norte 41 Norte 0 1014.5 -- 77
2020-07-22 01:00:00 22.7 23 Nordeste 37 Norte 0 1015.2 -- 74
2020-07-22 00:00:00 22 27 Norte 39 Norte 0 1015.2 -- 81
2020-07-21 23:00:00 22.3 25 Norte 39 Norte 0 1015 -- 78
2020-07-21 22:00:00 22.5 25 Norte 37 Norte 0 1015 -- 74
2020-07-21 21:00:00 23.1 23 Norte 39 Norte 0 1014.4 -- 71
2020-07-21 20:00:00 24.5 32 Norte 45 Norte 0 1013.6 -- 65
2020-07-21 19:00:00 25.7 32 Norte 46 Norte 0 1013.2 -- 60
2020-07-21 18:00:00 27 35 Norte 50 Norte 0 1013.2 -- 56
2020-07-21 17:00:00 28.1 39 Norte 48 Norte 0 1013.1 -- 52
2020-07-21 16:00:00 28.4 32 Norte 48 Norte 0 1013.3 -- 50
2020-07-21 15:00:00 28.5 37 Norte 48 Norte 0 1013.7 -- 50
2020-07-21 14:00:00 28.4 31 Norte 45 Norte 0 1014.2 -- 50
2020-07-21 13:00:00 27.9 28 Norte 45 Norte 0 1014.4 -- 50
2020-07-21 12:00:00 27.2 29 Norte 45 Norte 0 1014.6 -- 54
2020-07-21 11:00:00 25.7 33 Norte 50 Norte 0 1014.2 -- 57
2020-07-21 10:00:00 24.3 35 Norte 48 Norte 0 1013.6 -- 61
2020-07-21 09:00:00 23.2 33 Norte 50 Norte 0 1013.1 -- 65
2020-07-21 08:00:00 21.9 28 Norte 39 Norte 0 1012.7 -- 72
2020-07-21 07:00:00 21.8 25 Norte 35 Norte 0 1013 -- 70
2020-07-21 06:00:00 22.1 23 Norte 33 Norte 0 1013.1 -- 71
2020-07-21 05:00:00 22 23 Norte 32 Norte 0 1013.1 -- 70
2020-07-21 04:00:00 21.8 26 Norte 45 Norte 0 1013 -- 74
2020-07-21 03:00:00 22.3 28 Norte 37 Norte 0 1012.7 -- 76
2020-07-21 02:00:00 22.1 26 Norte 45 Norte 0 1013.3 -- 76
2020-07-21 01:00:00 22.3 30 Norte 42 Norte 0 1012.9 -- 77
2020-07-21 00:00:00 22.1 22 Norte 41 Norte 0 1013.5 -- 76
2020-07-20 23:00:00 22.2 27 Norte 37 Norte 0 1013.4 -- 76
2020-07-20 22:00:00 22.5 21 Nordeste 52 Norte 0 1013.1 -- 76
2020-07-20 21:00:00 22.9 38 Norte 52 Norte 0 1011.7 -- 74
2020-07-20 20:00:00 24.4 39 Norte -- -- -- 1012 -- 67
2020-07-20 19:00:00 25.6 39 Norte 61 Norte 0 1011.8 -- 62
2020-07-20 18:00:00 26.3 42 Norte 59 Norte 0 1011.4 -- 60
2020-07-20 17:00:00 27.4 42 Norte 59 Norte 0 1011.5 -- 57
2020-07-20 16:00:00 27.9 42 Norte 59 Norte 0 1011.6 -- 57
2020-07-20 15:00:00 28 37 Norte 54 Norte 0 1012.1 -- 56
2020-07-20 14:00:00 28 36 Norte 52 Norte 0 1012.6 -- 58
2020-07-20 13:00:00 27.3 35 Norte 54 Norte 0 1012.7 -- 60
2020-07-20 12:00:00 27 37 Norte 58 Norte 0 1012.4 -- 62
2020-07-20 11:00:00 26 42 Norte 58 Norte 0 1012 -- 66
2020-07-20 10:00:00 24.4 42 Norte 63 Norte 0 1011.2 -- 72
2020-07-20 09:00:00 23.1 39 Norte 67 Norte 0 1010.9 -- 80
2020-07-20 08:00:00 22.2 38 Norte 68 Norte 0 1009.6 -- 84
2020-07-20 07:00:00 22 51 Norte 71 Norte 0 1009.2 -- 86
2020-07-20 06:00:00 22 49 Norte 68 Norte 0 1009 -- 86
2020-07-20 05:00:00 22.2 29 Norte 65 Norte 0 1009.4 -- 86
2020-07-20 04:00:00 22.5 48 Norte 63 Norte 0 1008.8 -- 85
2020-07-20 03:00:00 22.7 37 Norte 54 Norte 0 1009.6 -- 84
2020-07-20 02:00:00 22.8 38 Norte 50 Norte 0 1010.9 -- 86
2020-07-20 01:00:00 23 31 Norte 58 Norte 0 1010.6 -- 85
2020-07-20 00:00:00 23.4 42 Norte 59 Norte 0 1010.1 -- 80
2020-07-19 23:00:00 23.9 41 Norte 59 Norte 0 1010.1 -- 76
2020-07-19 22:00:00 23.8 42 Norte 71 Norte 0 1009.8 -- 78
2020-07-19 21:00:00 24.5 49 Norte 71 Norte 0 1008.9 -- 74
2020-07-19 20:00:00 26.2 49 Norte 71 Noroeste 0 1008.6 -- 64
2020-07-19 19:00:00 28.4 50 Norte 68 Norte 0 1008.8 -- 50
2020-07-19 18:00:00 29.1 45 Norte 67 Norte 0 1009.2 -- 53
2020-07-19 17:00:00 30.3 49 Norte 65 Norte 0 1009.8 -- 48
2020-07-19 16:00:00 32.5 42 Norte 55 Norte 0 1010.2 -- 42
2020-07-19 15:00:00 33.4 38 Norte 55 Norte 0 1010.5 -- 41
2020-07-19 14:00:00 32.6 38 Norte 58 Norte 0 1010.7 -- 43
2020-07-19 13:00:00 32.9 45 Norte 61 Norte 0 1010.3 -- 40
2020-07-19 12:00:00 33 37 Norte 54 Norte 0 1010.4 -- 40
2020-07-19 11:00:00 30.7 32 Norte 52 Norte 0 1010.7 1.7 46
2020-07-19 10:00:00 27.8 36 Norte 65 Norte 0 1010.4 1 55
2020-07-19 09:00:00 26 37 Norte 59 Norte 0 1009.8 0.3 59
2020-07-19 08:00:00 24.7 43 Norte 59 Norte 0 1009 -0.1 62
2020-07-19 07:00:00 24.3 34 Norte 45 Norte 0 1009.4 -- 61
2020-07-19 06:00:00 23.9 29 Norte 48 Norte 0 1009.5 -- 64
2020-07-19 05:00:00 23.5 32 Norte 55 Norte 0 1009.1 -- 68
2020-07-19 04:00:00 23.2 40 Norte 61 Norte 0 1009.1 -- 76
2020-07-19 03:00:00 23.4 44 Norte 61 Norte 0 1009.3 -- 76
2020-07-19 02:00:00 23.9 39 Norte 54 Norte 0 1010.3 -- 74
2020-07-19 01:00:00 24.2 32 Norte 50 Norte 0 1011.2 -- 74
2020-07-19 00:00:00 24.5 34 Norte 52 Norte 0 1011.2 -- 71
2020-07-18 23:00:00 24.6 37 Norte 55 Norte 0 1010.8 -- 73
2020-07-18 22:00:00 24.7 42 Norte 55 Norte 0 1010.1 -- 74
2020-07-18 21:00:00 24.8 39 Norte 54 Norte 0 1010 -- 78
2020-07-18 20:00:00 27.2 34 Norte 48 Norte 0 1009.9 -- 65
2020-07-18 19:00:00 30.3 30 Norte 46 Noroeste 0 1009.9 -- 51
2020-07-18 18:00:00 32.7 25 Norte 42 Noroeste 0 1010 -- 42
2020-07-18 17:00:00 32.9 28 Norte 37 Noroeste 0 1010.3 -- 46
2020-07-18 16:00:00 33 26 Norte 41 Noroeste 0 1010.8 -- 46
2020-07-18 15:00:00 33 28 Norte 41 Noroeste 0 1010.9 -- 45
2020-07-18 14:00:00 32.7 27 Norte 37 Norte 0 1011.2 -- 46
2020-07-18 13:00:00 32.9 21 Norte 30 Norte 0 1011.3 -- 45
2020-07-18 12:00:00 28.4 15 Sur 22 Sur 0 1011.5 -- 62
2020-07-18 11:00:00 27.8 8 Sudeste 26 Norte 0 1011.6 -- 66
2020-07-18 10:00:00 28.4 18 Norte 33 Norte 0 1011 -- 56
2020-07-18 09:00:00 24.2 20 Noroeste 32 Norte 0 1011 -- 79
2020-07-18 08:00:00 22.3 17 Norte 32 Norte 0 1010.9 -- 87
2020-07-18 07:00:00 22.1 23 Noroeste 33 Noroeste 0 1010.4 -- 86
2020-07-18 06:00:00 21.6 20 Norte 32 Norte 0 1010.1 -- 90
2020-07-18 05:00:00 21.7 18 Norte 33 Norte 0 1010 -- 88
2020-07-18 04:00:00 21.9 26 Norte 45 Norte 0 1010.4 -- 86
2020-07-18 03:00:00 21.9 21 Norte 33 Norte 0 1010.9 -- 87
2020-07-18 02:00:00 21.9 28 Norte 37 Noroeste 0 1011.5 -- 85
2020-07-18 01:00:00 21.9 25 Norte 37 Noroeste 0 1011.9 -- 86
2020-07-18 00:00:00 22.1 17 Norte 35 Norte 0 1011.7 -- 85
2020-07-17 23:00:00 22.6 26 Norte 39 Norte 0 1011.6 -- 82
2020-07-17 22:00:00 23.3 23 Norte 32 Norte 0 1011.2 -- 78
2020-07-17 21:00:00 23.6 19 Noroeste 39 Norte 0 1010.8 -- 77
2020-07-17 20:00:00 25.1 27 Norte 41 Norte 0 1010.3 -- 72
2020-07-17 19:00:00 27.1 30 Norte 39 Norte 0 1010.3 -- 64
2020-07-17 18:00:00 29.7 22 Norte 35 Norte 0 1010.3 -- 51
2020-07-17 17:00:00 31.3 24 Norte 33 Norte 0 1010.7 -- 48
2020-07-17 16:00:00 29.4 7 Sudeste 18 Sudeste 0 1010.8 -- 58
2020-07-17 15:00:00 28.2 12 Sur 22 Sur 0 1011.4 -- 63
2020-07-17 14:00:00 28.1 11 Sur 18 Sudeste 0 1011.6 -- 63
2020-07-17 13:00:00 27.5 10 Sudoeste 26 Sur 0 1012 -- 65
2020-07-17 12:00:00 29.3 12 Norte 33 Norte 0 1012 -- 56
2020-07-17 11:00:00 27.5 19 Norte 37 Norte 0 1012.1 -- 59
2020-07-17 10:00:00 24.7 4 Sudoeste 37 Norte 0 1011.8 -- 68
2020-07-17 09:00:00 22.5 24 Norte 33 Noroeste 0 1011.5 -- 81
2020-07-17 08:00:00 21.2 12 Norte 21 Norte 0 1011.5 -- 85
2020-07-17 07:00:00 20.8 11 Noroeste 30 Norte 0 1011.1 -- 81
2020-07-17 06:00:00 20.9 11 Norte 24 Noroeste 0 1011.1 -- 85
2020-07-17 05:00:00 21 18 Norte 30 Noroeste 0 1010.8 -- 86
2020-07-17 04:00:00 21.1 17 Norte 26 Norte 0 1010.7 -- 85
2020-07-17 03:00:00 21.1 21 Norte 30 Norte 0 1010.9 -- 86
2020-07-17 02:00:00 21.7 17 Norte 33 Norte 0 1011.7 -- 80
2020-07-17 01:00:00 21.5 24 Norte 32 Norte 0 1011.9 -- 84
2020-07-17 00:00:00 21.7 18 Norte 33 Norte 0 1012.5 -- 83
2020-07-16 23:00:00 22.1 27 Norte 39 Norte 0 1012.2 -- 80
2020-07-16 22:00:00 22.5 24 Norte 52 Noroeste 0 1011.2 -- 78
2020-07-16 21:00:00 22.8 33 Norte 45 Norte 0 1010.4 -- 78
2020-07-16 20:00:00 24.8 28 Norte 42 Noroeste 0 1010.5 -- 69
2020-07-16 19:00:00 26.2 35 Norte 45 Norte 0 1010.2 -- 63
2020-07-16 18:00:00 28.8 29 Norte 39 Norte 0 1010.4 -- 54
2020-07-16 17:00:00 29.9 24 Norte 35 Norte 0 1010.8 -- 51
2020-07-16 16:00:00 30 15 Noroeste 39 Noroeste 0 1011.1 -- 51
2020-07-16 15:00:00 31.3 25 Norte 33 Norte 0 1010.9 -- 48
2020-07-16 14:00:00 29.9 20 Norte 33 Norte 0 1010.9 -- 52
2020-07-16 13:00:00 29.4 20 Norte 30 Norte 0 1011.1 -- 54
2020-07-16 12:00:00 27.6 12 Norte 30 Noroeste 0 1011.5 -- 59
2020-07-16 11:00:00 26 21 Norte 37 Norte 0 1011.4 -- 65
2020-07-16 10:00:00 23.8 26 Norte 39 Norte 0 1010.8 -- 73
2020-07-16 09:00:00 22.1 25 Norte 37 Norte 0 1010.2 -- 80
2020-07-16 08:00:00 20.9 22 Norte 39 Norte 0 1009.4 -- 86
2020-07-16 07:00:00 20.6 21 Norte 37 Noroeste 0 1008.9 -- 88
2020-07-16 06:00:00 20.6 21 Norte 35 Norte 0 1008.6 -- 88
2020-07-16 05:00:00 20.8 25 Norte 37 Norte 0 1008.6 -- 87
2020-07-16 04:00:00 20.9 22 Norte 39 Norte 0 1008.5 -- 86
2020-07-16 03:00:00 21 22 Norte 35 Norte 0 1008.6 -- 86
2020-07-16 02:00:00 21.2 21 Norte 48 Norte 0 1009.2 -- 85
2020-07-16 01:00:00 21.5 31 Norte 63 Norte 0 1009.1 -- 85
2020-07-16 00:00:00 21.7 45 Norte 67 Norte 0 1008.7 -- 83
2020-07-15 23:00:00 21.8 46 Norte 71 Norte 0 1008.1 -- 83
2020-07-15 22:00:00 22 42 Norte 61 Norte 0 1007.9 -- 82
2020-07-15 21:00:00 22.5 41 Norte 55 Norte 0 1008 -- 80
2020-07-15 20:00:00 23.7 34 Norte 58 Norte 0 1008 -- 74
2020-07-15 19:00:00 25.2 46 Norte 58 Norte 0 1007.6 -- 69
2020-07-15 18:00:00 26.4 40 Norte 58 Norte 0 1008 -- 64
2020-07-15 17:00:00 27.4 36 Norte 50 Norte 0 1008.5 -- 62
2020-07-15 16:00:00 27.9 36 Norte 58 Norte 0 1008.6 -- 60
2020-07-15 15:00:00 28.2 36 Norte 59 Norte 0 1008.2 -- 59
2020-07-15 14:00:00 28.2 42 Norte 58 Norte 0 1008.4 -- 59
2020-07-15 13:00:00 27.5 42 Norte 59 Norte 0 1008.8 -- 61
2020-07-15 12:00:00 26.6 44 Norte 63 Norte 0 1008.6 -- 65
2020-07-15 11:00:00 25.9 44 Norte 61 Norte 0 1008.4 -- 68
2020-07-15 10:00:00 24.8 39 Norte 59 Norte 0 1008.3 -- 73
2020-07-15 09:00:00 23.2 42 Norte 63 Norte 0 1007.5 -- 79
2020-07-15 08:00:00 21.9 39 Norte 59 Norte 0 1006.8 -- 85
2020-07-15 07:00:00 21.5 43 Norte 61 Norte 0 1006.5 -- 87
2020-07-15 06:00:00 21.4 40 Norte 61 Norte 0 1006.1 -- 88
2020-07-15 05:00:00 21.6 41 Norte 63 Norte 0 1006.3 -- 87
2020-07-15 04:00:00 21.6 40 Norte 58 Norte 0 1006.7 -- 87
2020-07-15 03:00:00 21.5 40 Norte 61 Norte 0 1007.3 -- 87
2020-07-15 02:00:00 21.6 34 Norte 65 Noroeste 0 1008.1 -- 87
2020-07-15 01:00:00 21.5 51 Noroeste 67 Norte 0 1007.9 -- 85
2020-07-15 00:00:00 21.8 47 Norte 68 Noroeste 0 1008.3 -- 84
2020-07-14 23:00:00 21.9 51 Norte 72 Noroeste 0 1007.9 -- 83
2020-07-14 22:00:00 22.2 51 Norte 72 Norte 0 1007.6 -- 83
2020-07-14 21:00:00 22.6 51 Norte 71 Noroeste 0 1007.2 -- 80
2020-07-14 20:00:00 24 51 Norte 72 Norte 0 1007.6 -- 74
2020-07-14 19:00:00 25.1 51 Norte 68 Norte 0 1008 -- 70
2020-07-14 18:00:00 26.2 51 Norte 68 Norte 0 1008.1 -- 66
2020-07-14 17:00:00 27.2 48 Norte 67 Noroeste 0 1008.9 -- 63
2020-07-14 16:00:00 27.2 47 Norte 65 Noroeste 0 1009.3 -- 62
2020-07-14 15:00:00 28.1 48 Noroeste 61 Noroeste 0 1009.7 -- 59
2020-07-14 14:00:00 28.2 41 Norte 59 Noroeste 0 1010.6 -- 58
2020-07-14 13:00:00 27.4 37 Norte 52 Norte 0 1011.4 -- 60
2020-07-14 12:00:00 27.1 34 Norte 50 Norte 0 1012 -- 61
2020-07-14 11:00:00 25.9 37 Norte 52 Norte 0 1011.9 -- 64
2020-07-14 10:00:00 24.2 32 Norte 50 Norte 0 1012.1 -- 71
2020-07-14 09:00:00 22.9 32 Norte 48 Norte 0 1011.8 -- 75
2020-07-14 08:00:00 21.2 26 Norte 46 Norte 0 1011.9 -- 80
2020-07-14 07:00:00 20.6 23 Norte 42 Norte 0 1011.6 -- 82
2020-07-14 06:00:00 20.8 25 Norte 48 Norte 0 1012.1 -- 82
2020-07-14 05:00:00 20.8 28 Norte 41 Norte 0 1012.2 -- 82
2020-07-14 04:00:00 20.8 28 Norte 41 Norte 0 1012.6 -- 81
2020-07-14 03:00:00 20.9 25 Norte 48 Norte 0 1013.2 -- 81
2020-07-14 02:00:00 20.9 31 Norte 46 Norte 0 1013.7 -- 82
2020-07-14 01:00:00 21 26 Norte 45 Norte 0 1014.5 -- 81
2020-07-14 00:00:00 21.1 28 Norte 48 Norte 0 1014.7 -- 81
2020-07-13 23:00:00 21.4 34 Norte 50 Norte 0 1014.5 -- 80
2020-07-13 22:00:00 21.5 32 Norte 50 Noroeste 0 1014.1 -- 80
2020-07-13 21:00:00 22 30 Norte 52 Norte 0 1013.7 0 78
2020-07-13 20:00:00 23.5 34 Norte 50 Norte 0 1013.1 -0.9 72
2020-07-13 19:00:00 24.9 34 Norte 54 Norte 0 1013.5 -0.7 67
2020-07-13 18:00:00 26.5 38 Norte 50 Norte 0 1013.7 -0.4 61
2020-07-13 17:00:00 27.1 31 Norte 52 Norte 0 1014 -0.8 58
2020-07-13 16:00:00 28.1 37 Norte 52 Norte 0 1014.2 -1.1 56
2020-07-13 15:00:00 28.1 38 Norte 55 Norte 0 1014.1 -1.4 55
2020-07-13 14:00:00 27.9 37 Norte 50 Norte 0 1014.8 -0.5 56
2020-07-13 13:00:00 28 35 Norte 48 Norte 0 1015.3 0 56
2020-07-13 12:00:00 26.6 37 Norte 48 Norte 0 1015.5 0.5 60
2020-07-13 11:00:00 25.4 35 Norte 46 Norte 0 1015.3 0.2 64
2020-07-13 10:00:00 23.9 32 Norte 48 Norte 0 1015.3 0.7 71
2020-07-13 09:00:00 22.4 31 Norte 41 Norte 0 1015 1.5 77
2020-07-13 08:00:00 20.8 22 Norte 32 Norte 0 1015.1 2 85
2020-07-13 07:00:00 20.4 20 Norte 41 Norte 0 1014.6 1.4 87
2020-07-13 06:00:00 20.4 23 Norte -- -- -- 1013.5 -- 87
2020-07-13 05:00:00 20.7 29 Noroeste 45 Noroeste 0 1013.1 -0.9 85
2020-07-13 04:00:00 20.6 26 Norte 42 Noroeste 0 1013.2 -1 86
2020-07-13 03:00:00 20.8 28 Norte 48 Norte 0 1013 -1.4 86
2020-07-13 02:00:00 20.8 19 Norte 46 Noroeste 0 1014 -0.3 86
2020-07-13 01:00:00 21.1 28 Norte 50 Norte 0 1014.2 0.5 84
2020-07-13 00:00:00 21.2 26 Norte 41 Norte 0 1014.4 1.1 83
2020-07-12 23:00:00 21.6 29 Norte 48 Norte 0 1014.3 1.4 83
2020-07-12 22:00:00 21.9 28 Norte 46 Norte 0 1013.7 1.2 81
2020-07-12 21:00:00 22.6 27 Norte 46 Norte 0 1013.3 1.2 78
2020-07-12 20:00:00 24 31 Norte 45 Norte 0 1012.9 0.8 73
2020-07-12 19:00:00 25.2 31 Norte 45 Norte 0 1012.5 0.4 68
2020-07-12 18:00:00 26.6 35 Norte 46 Norte 0 1012.1 -0.2 62
2020-07-12 17:00:00 28 34 Norte 48 Norte 0 1012.1 -0.3 58
2020-07-12 16:00:00 28.8 34 Norte 48 Norte 0 1012.1 -0.5 56
2020-07-12 15:00:00 29.2 34 Norte 54 Norte 0 1012.3 -0.1 54
2020-07-12 14:00:00 29.1 33 Norte 50 Norte 0 1012.4 -- 54
2020-07-12 13:00:00 28.4 33 Norte 46 Norte 0 1012.6 0.6 56
2020-07-12 12:00:00 27.7 31 Norte 45 Norte 0 1012.4 -- 58
2020-07-12 11:00:00 26.1 32 Norte 45 Norte 0 1012.2 -- 64
2020-07-12 10:00:00 24.3 31 Norte 46 Norte 0 1012 -- 70
2020-07-12 09:00:00 22.6 30 Norte 46 Norte 0 1011.4 1.9 78
2020-07-12 08:00:00 21 33 Norte 48 Norte 0 1010.6 -- 85
2020-07-12 07:00:00 20.6 35 Norte 54 Norte 0 1009.9 -- 86
2020-07-12 06:00:00 20.6 32 Norte 55 Norte 0 1009.5 -- 87
2020-07-12 05:00:00 20.6 37 Norte 58 Norte 0 1009.1 -- 87
2020-07-12 04:00:00 20.6 36 Norte 59 Norte 0 1009 -- 87
2020-07-12 03:00:00 20.7 41 Norte 58 Norte 0 1009.2 -- 86
2020-07-12 02:00:00 20.9 40 Norte 58 Norte 0 1009.4 -- 85
2020-07-12 01:00:00 21.1 35 Norte 55 Norte 0 1010 -- 85
2020-07-12 00:00:00 21.1 38 Norte 58 Norte 0 1010 -- 84
2020-07-11 23:00:00 21.4 39 Norte 54 Norte 0 1010.1 -- 82
2020-07-11 22:00:00 21.8 29 Norte 55 Norte 0 1010.3 -- 81
2020-07-11 21:00:00 22.3 37 Norte 55 Norte 0 1009.2 -- 79
2020-07-11 20:00:00 23.6 39 Norte 58 Norte 0 1009.1 -- 74
2020-07-11 19:00:00 25 43 Norte 59 Norte 0 1008.4 -- 69
2020-07-11 18:00:00 26.7 42 Norte 58 Norte 0 1008.6 -0.8 63
2020-07-11 17:00:00 27.6 42 Norte 55 Norte 0 1008.8 -- 58
2020-07-11 16:00:00 28.5 39 Norte 50 Norte 0 1009.2 -- 56
2020-07-11 15:00:00 28.7 36 Norte 52 Norte 0 1009.4 -- 55
2020-07-11 14:00:00 28.8 39 Norte 48 Norte 0 1009.7 -- 54
2020-07-11 13:00:00 28.1 40 Norte 50 Norte 0 1009.9 -- 55
2020-07-11 12:00:00 26.8 36 Norte 52 Norte 0 1009.8 -- 58
2020-07-11 11:00:00 25.3 36 Norte 54 Norte 0 1009.6 -- 63
2020-07-11 10:00:00 24.2 39 Norte 58 Norte 0 1009.1 -- 69
2020-07-11 09:00:00 22.8 41 Norte 58 Norte 0 1009 -- 75
2020-07-11 08:00:00 21 31 Norte 48 Norte 0 1009.3 -- 82
2020-07-11 07:00:00 20.8 31 Norte 45 Norte 0 1008.9 -- 84
2020-07-11 06:00:00 20.8 25 Norte 42 Norte 0 1008.9 -- 86
2020-07-11 05:00:00 20.8 32 Norte 46 Norte 0 1008.8 -- 85
2020-07-11 04:00:00 20.9 34 Norte 48 Norte 0 1009 -- 83
2020-07-11 03:00:00 20.9 30 Norte 59 Norte 0 1009.4 -- 85
2020-07-11 02:00:00 20.8 34 Norte 58 Norte 0 1009 -- 84
2020-07-11 01:00:00 21 42 Norte 61 Norte 0 1009 -0.2 84
2020-07-11 00:00:00 21.3 40 Norte 55 Norte 0 1009.3 -- 82
2020-07-10 23:00:00 21.5 37 Norte 50 Norte 0 1009.6 -- 81
2020-07-10 22:00:00 21.8 36 Norte 54 Norte 0 1009.2 -- 79
2020-07-10 21:00:00 22.4 38 Norte 63 Norte 0 1008.6 -- 78
2020-07-10 20:00:00 23.7 46 Norte 61 Norte 0 1008.4 -- 72
2020-07-10 19:00:00 25.1 45 Norte 61 Norte 0 1008.4 -- 66
2020-07-10 18:00:00 26.3 48 Norte 61 Norte 0 1008.5 -- 62
2020-07-10 17:00:00 27.1 43 Norte 59 Norte 0 1009 -- 59
2020-07-10 16:00:00 27.2 41 Norte 58 Norte 0 1009.6 -- 57
2020-07-10 15:00:00 28 37 Norte 58 Norte 0 1009.9 -- 55
2020-07-10 14:00:00 27.9 42 Norte 63 Norte 0 1010.4 -- 54
2020-07-10 13:00:00 27.5 45 Norte 61 Norte 0 1010.6 -0.7 57
2020-07-10 12:00:00 26.7 40 Norte 54 Nordeste 0 1010.9 -- 59
2020-07-10 11:00:00 25.2 39 Norte 55 Norte 0 1011 -- 64
2020-07-10 10:00:00 23.9 32 Norte 50 Norte 0 1011.3 -0.1 68
2020-07-10 09:00:00 22.6 30 Norte 46 Norte 0 1011.4 -- 73
2020-07-10 08:00:00 21.3 27 Norte 42 Norte 0 1011.2 -- 76
2020-07-10 07:00:00 21 29 Norte 41 Norte 0 1011.4 -- 75
2020-07-10 06:00:00 21.3 19 Norte 35 Norte 0 1011.4 -- 76
2020-07-10 05:00:00 21.3 23 Nordeste 45 Norte 0 1011.5 -- 76
2020-07-10 04:00:00 21.4 21 Norte 45 Norte 0 1011.7 -- 76
2020-07-10 03:00:00 21.5 29 Norte 46 Norte 0 1012.6 -- 74
2020-07-10 02:00:00 21.5 29 Norte 45 Norte 0 1013.4 -- 74
2020-07-10 01:00:00 21.6 27 Norte 45 Norte 0 1013.9 -- 75
2020-07-10 00:00:00 21.6 19 Norte 41 Nordeste 0 1014.3 -- 76
2020-07-09 23:00:00 21.7 27 Norte 45 Norte 0 1014.2 -- 75
2020-07-09 22:00:00 22 28 Norte 50 Norte 0 1013.8 -- 75
2020-07-09 21:00:00 22.3 36 Norte 54 Norte 0 1013.3 -- 73
2020-07-09 20:00:00 23.6 33 Norte 50 Norte 0 1013.1 -- 67
2020-07-09 19:00:00 25 37 Norte 59 Norte 0 1013.3 -- 63
2020-07-09 18:00:00 26.2 47 Norte 63 Norte 0 1013.1 -- 59
2020-07-09 17:00:00 26.9 37 Norte 61 Norte 0 1013.6 -- 56
2020-07-09 16:00:00 27.4 40 Norte 55 Norte 0 1013.9 -- 55
2020-07-09 15:00:00 28.1 44 Norte 58 Norte 0 1014.4 -- 53
2020-07-09 14:00:00 28.2 40 Norte 55 Norte 0 1015 -- 53
2020-07-09 13:00:00 27.3 38 Norte 50 Norte 0 1015.2 -- 56
2020-07-09 12:00:00 26.3 38 Norte 50 Norte 0 1015.5 -- 60
2020-07-09 11:00:00 25.4 39 Norte 67 Norte 0 1015 -- 63
2020-07-09 10:00:00 23.8 57 Norte 67 Norte 0 1014 -- 69
2020-07-09 09:00:00 22.1 51 Norte 65 Norte 0 1013.7 -- 77
2020-07-09 08:00:00 20.8 48 Norte 65 Norte 0 1013.3 -- 84
2020-07-09 07:00:00 20.3 44 Norte 59 Norte 0 1013.3 -- 86
2020-07-09 06:00:00 20.5 40 Norte 58 Norte 0 1013.1 -- 86
2020-07-09 05:00:00 20.6 33 Norte 58 Norte 0 1013.2 -- 86
2020-07-09 04:00:00 20.8 42 Norte 59 Norte 0 1012.9 -- 86
2020-07-09 03:00:00 20.8 37 Norte 58 Norte 0 1012.9 -- 87
2020-07-09 02:00:00 21 44 Norte 59 Norte 0 1013.2 -- 87
2020-07-09 01:00:00 21.3 32 Norte 54 Norte 0 1013.6 -- 87
2020-07-09 00:00:00 21.5 31 Norte 54 Norte 0 1014 -- 87
2020-07-08 23:00:00 21.8 41 Norte 55 Norte 0 1013.6 -- 86
2020-07-08 22:00:00 22.1 38 Norte 59 Norte 0 1013.2 -- 85
2020-07-08 21:00:00 22.8 48 Norte 65 Norte 0 1012.7 -- 82
2020-07-08 20:00:00 24.3 44 Norte 59 Norte 0 1012.5 -- 75
2020-07-08 19:00:00 26.6 44 Norte 61 Norte 0 1012.2 -- 65
2020-07-08 18:00:00 28.5 44 Norte 59 Norte 0 1012.2 -- 57
2020-07-08 17:00:00 31.5 33 Norte 52 Norte 0 1012.6 -- 44
2020-07-08 16:00:00 28.8 32 Norte 61 Norte 0 1013.2 -- 56
2020-07-08 15:00:00 29.1 47 Norte 59 Norte 0 1013.1 -- 57
2020-07-08 14:00:00 30.2 38 Norte 50 Norte 0 1013.3 -- 53
2020-07-08 13:00:00 29.4 36 Norte 50 Norte 0 1013.6 -- 56
2020-07-08 12:00:00 28.8 33 Norte 45 Norte 0 1013.6 -- 58
2020-07-08 11:00:00 27.4 29 Norte 42 Noroeste 0 1013.4 -- 64
2020-07-08 10:00:00 25.6 32 Norte 46 Norte 0 1012.8 -- 70
2020-07-08 09:00:00 23.8 31 Norte 50 Norte 0 1012.3 -- 78
2020-07-08 08:00:00 22.4 32 Norte 48 Norte 0 1012 -- 85
2020-07-08 07:00:00 22 29 Norte 45 Norte 0 1011.7 -- 88
2020-07-08 06:00:00 22.2 29 Norte 42 Norte 0 1011.2 -- 87
2020-07-08 05:00:00 22.6 31 Norte 48 Norte 0 1010.8 -- 83
2020-07-08 04:00:00 22.8 22 Nordeste 41 Norte 0 1010.7 -- 84
2020-07-08 03:00:00 23.3 24 Norte 55 Noroeste 0 1010.8 -- 79
2020-07-08 02:00:00 23.8 37 Norte 55 Noroeste 0 1011 -- 76
2020-07-08 01:00:00 22.7 24 Noroeste 46 Noroeste 0 1012.2 -- 88
2020-07-08 00:00:00 22.9 17 Noroeste 41 Norte 0 1012 -- 87